createdAt,value
2017-02-10T00:00:06.049Z,0
2017-02-10T00:00:46.494Z,0
2017-02-10T00:01:26.963Z,0
2017-02-10T00:02:07.398Z,0
2017-02-10T00:02:47.908Z,0
2017-02-10T00:03:28.383Z,0
2017-02-10T00:04:08.839Z,0
2017-02-10T00:04:49.343Z,0
2017-02-10T00:05:29.817Z,0
2017-02-10T00:06:10.322Z,0
2017-02-10T00:06:50.773Z,0
2017-02-10T00:07:31.260Z,0
2017-02-10T00:08:11.746Z,0
2017-02-10T00:08:52.227Z,0
2017-02-10T00:09:32.699Z,0
2017-02-10T00:10:13.149Z,0
2017-02-10T00:10:53.643Z,0
2017-02-10T00:11:34.062Z,0
2017-02-10T00:12:14.529Z,0
2017-02-10T00:12:55.029Z,0
2017-02-10T00:13:35.465Z,0
2017-02-10T00:14:15.967Z,0
2017-02-10T00:14:56.479Z,0
2017-02-10T00:15:36.967Z,0
2017-02-10T00:16:17.439Z,0
2017-02-10T00:16:57.882Z,0
2017-02-10T00:17:38.363Z,0
2017-02-10T00:18:18.872Z,0
2017-02-10T00:18:59.302Z,0
2017-02-10T00:19:39.828Z,0
2017-02-10T00:20:20.284Z,0
2017-02-10T00:21:00.734Z,0
2017-02-10T00:21:41.254Z,0
2017-02-10T00:22:21.744Z,0
2017-02-10T00:23:02.194Z,0
2017-02-10T00:23:42.716Z,0
2017-02-10T00:24:23.188Z,0
2017-02-10T00:25:03.690Z,0
2017-02-10T00:25:44.139Z,0
2017-02-10T00:26:24.639Z,0
2017-02-10T00:27:05.099Z,0
2017-02-10T00:27:45.562Z,0
2017-02-10T00:28:26.014Z,0
2017-02-10T00:29:06.519Z,0
2017-02-10T00:29:47.020Z,0
2017-02-10T00:30:27.512Z,0
2017-02-10T00:31:08.018Z,0
2017-02-10T00:31:48.522Z,0
2017-02-10T00:32:28.977Z,0
2017-02-10T00:33:09.458Z,0
2017-02-10T00:33:50.014Z,0
2017-02-10T00:34:30.481Z,0
2017-02-10T00:35:11.010Z,0
2017-02-10T00:35:51.443Z,0
2017-02-10T00:36:31.898Z,0
2017-02-10T00:37:12.409Z,0
2017-02-10T00:37:52.882Z,0
2017-02-10T00:38:33.334Z,0
2017-02-10T00:39:13.793Z,0
2017-02-10T00:39:54.297Z,0
2017-02-10T00:40:34.756Z,0
2017-02-10T00:41:15.207Z,0
2017-02-10T00:41:55.690Z,0
2017-02-10T00:42:36.168Z,0
2017-02-10T00:43:16.717Z,0
2017-02-10T00:43:57.200Z,0
2017-02-10T00:44:37.665Z,0
2017-02-10T00:45:18.162Z,0
2017-02-10T00:45:58.655Z,0
2017-02-10T00:46:39.132Z,0
2017-02-10T00:47:19.627Z,0
2017-02-10T00:48:00.077Z,0
2017-02-10T00:48:40.543Z,0
2017-02-10T00:49:21.041Z,0
2017-02-10T00:50:01.560Z,0
2017-02-10T00:50:42.068Z,0
2017-02-10T00:51:22.538Z,0
2017-02-10T00:52:03.076Z,0
2017-02-10T00:52:43.548Z,0
2017-02-10T00:53:24.021Z,0
2017-02-10T00:54:04.465Z,0
2017-02-10T00:54:45.022Z,0
2017-02-10T00:55:25.523Z,0
2017-02-10T00:56:06.053Z,0
2017-02-10T00:56:46.505Z,0
2017-02-10T00:57:27.018Z,0
2017-02-10T00:58:07.480Z,0
2017-02-10T00:58:47.976Z,0
2017-02-10T00:59:28.455Z,0
2017-02-10T01:00:08.904Z,0
2017-02-10T01:00:49.418Z,0
2017-02-10T01:01:29.872Z,0
2017-02-10T01:02:10.295Z,0
2017-02-10T01:02:50.813Z,0
2017-02-10T01:03:31.327Z,0
2017-02-10T01:04:11.753Z,0
2017-02-10T01:04:52.250Z,0
2017-02-10T01:05:32.772Z,0
2017-02-10T01:06:13.231Z,0
2017-02-10T01:06:53.688Z,0
2017-02-10T01:07:34.145Z,0
2017-02-10T01:08:14.631Z,0
2017-02-10T01:08:55.227Z,0
2017-02-10T01:09:35.689Z,0
2017-02-10T01:10:16.156Z,0
2017-02-10T01:10:56.629Z,0
2017-02-10T01:11:37.064Z,0
2017-02-10T01:12:17.548Z,0
2017-02-10T01:12:58.036Z,0
2017-02-10T01:13:38.556Z,0
2017-02-10T01:14:19.011Z,0
2017-02-10T01:14:59.487Z,0
2017-02-10T01:15:39.997Z,0
2017-02-10T01:16:20.448Z,0
2017-02-10T01:17:00.944Z,0
2017-02-10T01:17:41.444Z,0
2017-02-10T01:18:21.912Z,0
2017-02-10T01:19:02.461Z,0
2017-02-10T01:19:43.009Z,0
2017-02-10T01:20:23.470Z,0
2017-02-10T01:21:03.971Z,0
2017-02-10T01:21:44.441Z,0
2017-02-10T01:22:24.904Z,0
2017-02-10T01:23:05.367Z,0
2017-02-10T01:23:45.839Z,0
2017-02-10T01:24:26.344Z,0
2017-02-10T01:25:06.794Z,0
2017-02-10T01:25:47.262Z,0
2017-02-10T01:26:27.794Z,0
2017-02-10T01:27:08.236Z,0
2017-02-10T01:27:48.754Z,0
2017-02-10T01:28:29.205Z,0
2017-02-10T01:29:09.693Z,0
2017-02-10T01:29:50.184Z,0
2017-02-10T01:30:30.655Z,0
2017-02-10T01:31:11.143Z,0
2017-02-10T01:31:51.589Z,0
2017-02-10T01:32:32.142Z,0
2017-02-10T01:33:12.589Z,0
2017-02-10T01:33:53.200Z,0
2017-02-10T01:34:33.632Z,0
2017-02-10T01:35:14.166Z,0
2017-02-10T01:35:54.708Z,0
2017-02-10T01:36:35.182Z,0
2017-02-10T01:37:15.627Z,0
2017-02-10T01:37:56.117Z,0
2017-02-10T01:38:36.618Z,0
2017-02-10T01:39:17.098Z,0
2017-02-10T01:39:57.590Z,0
2017-02-10T01:40:38.234Z,0
2017-02-10T01:41:18.618Z,0
2017-02-10T01:41:59.232Z,0
2017-02-10T01:42:39.687Z,0
2017-02-10T01:43:20.177Z,0
2017-02-10T01:44:00.691Z,0
2017-02-10T01:44:41.194Z,0
2017-02-10T01:45:21.619Z,0
2017-02-10T01:46:02.091Z,0
2017-02-10T01:46:42.566Z,0
2017-02-10T01:47:23.036Z,0
2017-02-10T01:48:03.540Z,0
2017-02-10T01:48:44.025Z,0
2017-02-10T01:49:24.466Z,0
2017-02-10T01:50:04.926Z,0
2017-02-10T01:50:45.378Z,0
2017-02-10T01:51:25.916Z,0
2017-02-10T01:52:06.324Z,0
2017-02-10T01:52:46.797Z,0
2017-02-10T01:53:27.285Z,0
2017-02-10T01:54:07.739Z,0
2017-02-10T01:54:48.289Z,0
2017-02-10T01:55:28.742Z,0
2017-02-10T01:56:09.207Z,0
2017-02-10T01:56:49.696Z,0
2017-02-10T01:57:30.205Z,0
2017-02-10T01:58:10.631Z,0
2017-02-10T01:58:51.070Z,0
2017-02-10T01:59:31.591Z,0
2017-02-10T02:00:12.061Z,0
2017-02-10T02:00:52.513Z,0
2017-02-10T02:01:33.081Z,0
2017-02-10T02:02:13.572Z,0
2017-02-10T02:02:54.042Z,0
2017-02-10T02:03:34.485Z,0
2017-02-10T02:04:14.949Z,0
2017-02-10T02:04:55.425Z,0
2017-02-10T02:05:35.999Z,0
2017-02-10T02:06:16.558Z,0
2017-02-10T02:06:56.961Z,0
2017-02-10T02:07:37.467Z,0
2017-02-10T02:08:17.889Z,0
2017-02-10T02:08:58.351Z,0
2017-02-10T02:09:38.847Z,0
2017-02-10T02:10:19.305Z,0
2017-02-10T02:10:59.822Z,0
2017-02-10T02:11:40.308Z,0
2017-02-10T02:12:20.788Z,0
2017-02-10T02:13:01.245Z,0
2017-02-10T02:13:41.744Z,0
2017-02-10T02:14:22.170Z,0
2017-02-10T02:15:02.698Z,0
2017-02-10T02:15:43.201Z,0
2017-02-10T02:16:23.810Z,0
2017-02-10T02:17:04.287Z,0
2017-02-10T02:17:44.716Z,0
2017-02-10T02:18:25.191Z,0
2017-02-10T02:19:05.722Z,0
2017-02-10T02:19:46.223Z,0
2017-02-10T02:20:26.719Z,0
2017-02-10T02:21:07.166Z,0
2017-02-10T02:21:47.672Z,0
2017-02-10T02:22:28.147Z,0
2017-02-10T02:23:08.621Z,0
2017-02-10T02:23:49.073Z,0
2017-02-10T02:24:29.553Z,0
2017-02-10T02:25:10.105Z,0
2017-02-10T02:25:50.604Z,0
2017-02-10T02:26:31.093Z,0
2017-02-10T02:27:11.565Z,0
2017-02-10T02:27:52.063Z,0
2017-02-10T02:28:32.553Z,0
2017-02-10T02:29:13.054Z,0
2017-02-10T02:29:53.510Z,0
2017-02-10T02:30:33.972Z,0
2017-02-10T02:31:14.449Z,0
2017-02-10T02:31:54.969Z,0
2017-02-10T02:32:35.457Z,0
2017-02-10T02:33:15.903Z,0
2017-02-10T02:33:56.450Z,0
2017-02-10T02:34:36.900Z,0
2017-02-10T02:35:17.360Z,0
2017-02-10T02:35:57.849Z,0
2017-02-10T02:36:38.386Z,0
2017-02-10T02:37:18.851Z,0
2017-02-10T02:37:59.310Z,0
2017-02-10T02:38:39.779Z,0
2017-02-10T02:39:20.255Z,0
2017-02-10T02:40:00.727Z,0
2017-02-10T02:40:41.184Z,0
2017-02-10T02:41:21.667Z,0
2017-02-10T02:42:02.128Z,0
2017-02-10T02:44:11.790Z,0
2017-02-10T02:46:34.551Z,0
2017-02-10T02:47:22.981Z,0
2017-02-10T02:48:11.456Z,0
2017-02-10T02:49:00.081Z,0
2017-02-10T02:49:48.617Z,0
2017-02-10T02:50:37.925Z,0
2017-02-10T02:51:26.427Z,0
2017-02-10T02:52:15.380Z,0
2017-02-10T02:53:03.776Z,0
2017-02-10T02:53:52.467Z,0
2017-02-10T02:54:41.394Z,0
2017-02-10T02:55:29.579Z,0
2017-02-10T02:56:18.642Z,0
2017-02-10T02:57:07.377Z,0
2017-02-10T02:57:56.003Z,0
2017-02-10T02:58:44.587Z,0
2017-02-10T02:59:33.511Z,0
2017-02-10T03:00:22.000Z,0
2017-02-10T03:01:10.942Z,0
2017-02-10T03:02:00.017Z,0
2017-02-10T03:02:48.444Z,0
2017-02-10T03:03:37.049Z,0
2017-02-10T03:04:25.542Z,0
2017-02-10T03:05:15.901Z,0
2017-02-10T03:06:04.543Z,0
2017-02-10T03:06:53.116Z,0
2017-02-10T03:07:41.697Z,0
2017-02-10T03:08:30.638Z,0
2017-02-10T03:09:19.476Z,0
2017-02-10T03:10:08.352Z,0
2017-02-10T03:10:57.577Z,0
2017-02-10T03:11:45.750Z,0
2017-02-10T03:12:34.472Z,0
2017-02-10T03:13:23.239Z,0
2017-02-10T03:14:12.369Z,0
2017-02-10T03:15:00.833Z,0
2017-02-10T03:15:49.886Z,0
2017-02-10T03:16:37.998Z,0
2017-02-10T03:17:27.001Z,0
2017-02-10T03:18:15.540Z,0
2017-02-10T03:19:04.326Z,0
2017-02-10T03:19:52.865Z,0
2017-02-10T03:20:41.935Z,0
2017-02-10T03:21:30.163Z,0
2017-02-10T03:22:19.263Z,0
2017-02-10T03:23:07.891Z,0
2017-02-10T03:23:56.562Z,0
2017-02-10T03:24:45.309Z,0
2017-02-10T03:25:34.011Z,0
2017-02-10T03:26:22.358Z,0
2017-02-10T03:27:11.534Z,0
2017-02-10T03:27:59.937Z,0
2017-02-10T03:28:48.514Z,0
2017-02-10T03:29:37.826Z,0
2017-02-10T03:30:26.129Z,0
2017-02-10T03:31:14.936Z,0
2017-02-10T03:32:03.581Z,0
2017-02-10T03:32:52.175Z,0
2017-02-10T03:33:41.306Z,0
2017-02-10T03:34:30.042Z,0
2017-02-10T03:35:18.493Z,0
2017-02-10T03:36:07.397Z,0
2017-02-10T03:36:55.595Z,0
2017-02-10T03:37:44.376Z,0
2017-02-10T03:38:32.957Z,0
2017-02-10T03:39:21.773Z,0
2017-02-10T03:40:10.562Z,0
2017-02-10T03:41:00.549Z,0
2017-02-10T03:41:49.024Z,0
2017-02-10T03:42:37.623Z,0
2017-02-10T03:43:26.146Z,0
2017-02-10T03:44:14.984Z,0
2017-02-10T03:45:03.993Z,0
2017-02-10T03:45:52.606Z,0
2017-02-10T03:46:41.465Z,0
2017-02-10T03:47:29.923Z,0
2017-02-10T03:48:18.332Z,0
2017-02-10T03:49:07.182Z,0
2017-02-10T03:49:55.744Z,0
2017-02-10T03:50:44.632Z,0
2017-02-10T03:51:33.573Z,0
2017-02-10T03:52:22.294Z,0
2017-02-10T03:53:10.969Z,0
2017-02-10T03:53:59.852Z,0
2017-02-10T03:54:48.807Z,0
2017-02-10T03:55:37.550Z,0
2017-02-10T03:56:25.869Z,0
2017-02-10T03:57:14.815Z,0
2017-02-10T03:58:03.056Z,0
2017-02-10T03:58:52.161Z,0
2017-02-10T03:59:40.930Z,0
2017-02-10T04:00:29.150Z,0
2017-02-10T04:01:17.573Z,0
2017-02-10T04:02:06.535Z,0
2017-02-10T04:02:55.187Z,0
2017-02-10T04:03:44.394Z,0
2017-02-10T04:04:32.629Z,0
2017-02-10T04:05:21.739Z,0
2017-02-10T04:06:10.142Z,0
2017-02-10T04:06:58.974Z,0
2017-02-10T04:07:47.685Z,0
2017-02-10T04:08:36.487Z,0
2017-02-10T04:09:25.208Z,0
2017-02-10T04:10:13.952Z,0
2017-02-10T04:11:02.154Z,0
2017-02-10T04:11:50.730Z,0
2017-02-10T04:12:39.626Z,0
2017-02-10T04:13:28.187Z,0
2017-02-10T04:14:16.953Z,0
2017-02-10T04:15:05.628Z,0
2017-02-10T04:15:54.488Z,0
2017-02-10T04:16:43.108Z,0
2017-02-10T04:17:31.891Z,0
2017-02-10T04:18:20.023Z,0
2017-02-10T04:19:09.057Z,0
2017-02-10T04:19:57.594Z,0
2017-02-10T04:20:46.190Z,0
2017-02-10T04:21:36.119Z,0
2017-02-10T04:22:24.930Z,0
2017-02-10T04:23:13.672Z,0
2017-02-10T04:24:02.395Z,0
2017-02-10T04:24:50.934Z,0
2017-02-10T04:25:39.580Z,0
2017-02-10T04:26:27.956Z,0
2017-02-10T04:27:17.184Z,0
2017-02-10T04:28:06.051Z,0
2017-02-10T04:28:54.922Z,0
2017-02-10T04:29:43.539Z,0
2017-02-10T04:30:31.841Z,0
2017-02-10T04:31:20.652Z,0
2017-02-10T04:32:09.597Z,0
2017-02-10T04:32:58.051Z,0
2017-02-10T04:33:46.612Z,0
2017-02-10T04:34:35.433Z,0
2017-02-10T04:35:24.351Z,0
2017-02-10T04:36:13.445Z,0
2017-02-10T04:37:01.846Z,0
2017-02-10T04:37:50.279Z,0
2017-02-10T04:38:38.837Z,0
2017-02-10T04:39:27.884Z,0
2017-02-10T04:40:16.183Z,0
2017-02-10T04:41:05.023Z,0
2017-02-10T04:41:53.257Z,0
2017-02-10T04:42:42.117Z,0
2017-02-10T04:43:30.540Z,0
2017-02-10T04:44:19.184Z,0
2017-02-10T04:45:08.310Z,0
2017-02-10T04:45:56.883Z,0
2017-02-10T04:46:45.901Z,0
2017-02-10T04:49:07.173Z,0
2017-02-10T04:49:55.379Z,0
2017-02-10T04:50:43.793Z,0
2017-02-10T04:51:31.961Z,0
2017-02-10T04:52:20.066Z,0
2017-02-10T04:53:09.059Z,0
2017-02-10T04:53:57.871Z,0
2017-02-10T04:54:46.250Z,0
2017-02-10T04:55:34.690Z,0
2017-02-10T04:56:23.809Z,0
2017-02-10T04:57:12.596Z,0
2017-02-10T04:58:00.984Z,0
2017-02-10T04:58:49.951Z,0
2017-02-10T04:59:38.776Z,0
2017-02-10T05:00:28.036Z,0
2017-02-10T05:01:16.711Z,0
2017-02-10T05:02:05.289Z,0
2017-02-10T05:02:54.503Z,0
2017-02-10T05:03:43.245Z,0
2017-02-10T05:04:32.230Z,0
2017-02-10T05:05:20.402Z,0
2017-02-10T05:06:09.354Z,0
2017-02-10T05:06:57.768Z,0
2017-02-10T05:07:46.509Z,0
2017-02-10T05:08:35.263Z,0
2017-02-10T05:09:24.196Z,0
2017-02-10T05:10:12.286Z,0
2017-02-10T05:11:01.249Z,0
2017-02-10T05:11:49.903Z,0
2017-02-10T05:12:38.431Z,0
2017-02-10T05:13:27.220Z,0
2017-02-10T05:14:15.676Z,0
2017-02-10T05:15:04.647Z,0
2017-02-10T05:15:53.223Z,0
2017-02-10T05:16:42.131Z,0
2017-02-10T05:17:30.647Z,0
2017-02-10T05:18:19.263Z,0
2017-02-10T05:19:07.940Z,0
2017-02-10T05:19:56.463Z,0
2017-02-10T05:20:45.785Z,0
2017-02-10T05:21:34.894Z,0
2017-02-10T05:22:23.404Z,0
2017-02-10T05:23:11.948Z,0
2017-02-10T05:24:01.933Z,0
2017-02-10T05:24:50.479Z,0
2017-02-10T05:25:39.287Z,0
2017-02-10T05:26:28.215Z,0
2017-02-10T05:27:16.710Z,0
2017-02-10T05:28:05.370Z,0
2017-02-10T05:28:54.109Z,0
2017-02-10T05:29:42.463Z,0
2017-02-10T05:30:31.011Z,0
2017-02-10T05:31:20.487Z,0
2017-02-10T05:32:08.503Z,0
2017-02-10T05:32:57.293Z,0
2017-02-10T05:33:45.911Z,0
2017-02-10T05:34:35.194Z,0
2017-02-10T05:35:23.492Z,0
2017-02-10T05:36:12.232Z,0
2017-02-10T05:37:01.231Z,0
2017-02-10T05:37:49.817Z,0
2017-02-10T05:38:38.267Z,0
2017-02-10T05:39:27.508Z,0
2017-02-10T05:40:15.973Z,0
2017-02-10T05:41:05.109Z,0
2017-02-10T05:41:53.335Z,0
2017-02-10T05:42:42.098Z,0
2017-02-10T05:43:30.761Z,0
2017-02-10T05:44:19.671Z,0
2017-02-10T05:45:07.867Z,0
2017-02-10T05:45:56.613Z,0
2017-02-10T05:46:45.799Z,0
2017-02-10T05:47:34.249Z,0
2017-02-10T05:48:22.693Z,0
2017-02-10T05:49:11.813Z,0
2017-02-10T05:49:59.984Z,0
2017-02-10T05:50:49.243Z,0
2017-02-10T05:51:37.691Z,0
2017-02-10T05:52:26.652Z,0
2017-02-10T05:53:14.853Z,0
2017-02-10T05:54:03.456Z,0
2017-02-10T05:54:52.087Z,0
2017-02-10T05:55:41.247Z,0
2017-02-10T05:56:29.659Z,0
2017-02-10T05:57:18.696Z,0
2017-02-10T05:58:06.945Z,0
2017-02-10T05:58:55.643Z,0
2017-02-10T05:59:44.603Z,0
2017-02-10T06:00:32.965Z,0
2017-02-10T06:01:22.220Z,0
2017-02-10T06:02:10.583Z,0
2017-02-10T06:02:59.134Z,0
2017-02-10T06:03:47.753Z,0
2017-02-10T06:04:36.503Z,0
2017-02-10T06:05:25.399Z,0
2017-02-10T06:06:14.348Z,0
2017-02-10T06:07:02.510Z,0
2017-02-10T06:07:51.621Z,0
2017-02-10T06:08:39.918Z,0
2017-02-10T06:09:28.858Z,0
2017-02-10T06:10:17.806Z,0
2017-02-10T06:11:06.619Z,0
2017-02-10T06:11:54.968Z,0
2017-02-10T06:12:44.163Z,0
2017-02-10T06:13:32.887Z,0
2017-02-10T06:14:21.343Z,0
2017-02-10T06:15:09.894Z,0
2017-02-10T06:15:58.408Z,0
2017-02-10T06:16:47.406Z,0
2017-02-10T06:17:35.843Z,0
2017-02-10T06:18:24.798Z,0
2017-02-10T06:19:13.174Z,0
2017-02-10T06:20:01.766Z,0
2017-02-10T06:20:50.707Z,0
2017-02-10T06:21:39.700Z,0
2017-02-10T06:22:28.739Z,4
2017-02-10T06:23:17.338Z,4
2017-02-10T06:24:06.175Z,0
2017-02-10T06:24:54.706Z,0
2017-02-10T06:25:43.789Z,0
2017-02-10T06:26:32.374Z,4
2017-02-10T06:27:21.217Z,4
2017-02-10T06:28:09.683Z,0
2017-02-10T06:28:58.731Z,4
2017-02-10T06:29:46.944Z,4
2017-02-10T06:30:35.779Z,4
2017-02-10T06:31:24.561Z,8
2017-02-10T06:32:13.249Z,8
2017-02-10T06:33:01.572Z,8
2017-02-10T06:33:50.749Z,8
2017-02-10T06:34:39.244Z,8
2017-02-10T06:35:28.188Z,16
2017-02-10T06:36:16.685Z,16
2017-02-10T06:37:05.625Z,16
2017-02-10T06:37:53.953Z,16
2017-02-10T06:38:42.685Z,16
2017-02-10T06:39:31.577Z,16
2017-02-10T06:40:20.422Z,20
2017-02-10T06:41:08.913Z,20
2017-02-10T06:41:57.480Z,28
2017-02-10T06:42:46.503Z,28
2017-02-10T06:43:35.007Z,32
2017-02-10T06:44:24.087Z,40
2017-02-10T06:45:12.705Z,44
2017-02-10T06:46:00.939Z,52
2017-02-10T06:46:49.451Z,48
2017-02-10T06:47:38.185Z,52
2017-02-10T06:48:19.759Z,52
2017-02-10T06:49:00.302Z,52
2017-02-10T06:49:40.770Z,60
2017-02-10T06:50:21.242Z,64
2017-02-10T06:51:01.752Z,68
2017-02-10T06:51:42.260Z,72
2017-02-10T06:52:22.756Z,80
2017-02-10T06:53:03.171Z,84
2017-02-10T06:53:43.655Z,84
2017-02-10T06:54:24.176Z,96
2017-02-10T06:55:04.637Z,112
2017-02-10T06:55:45.108Z,108
2017-02-10T06:56:25.610Z,104
2017-02-10T06:57:06.098Z,104
2017-02-10T06:57:46.597Z,108
2017-02-10T06:58:26.997Z,116
2017-02-10T06:59:07.495Z,124
2017-02-10T06:59:47.955Z,136
2017-02-10T07:00:28.478Z,136
2017-02-10T07:01:08.958Z,140
2017-02-10T07:01:49.426Z,148
2017-02-10T07:02:29.939Z,160
2017-02-10T07:03:10.530Z,176
2017-02-10T07:03:50.874Z,188
2017-02-10T07:04:31.479Z,192
2017-02-10T07:05:11.950Z,184
2017-02-10T07:05:52.470Z,192
2017-02-10T07:06:32.963Z,200
2017-02-10T07:07:13.424Z,212
2017-02-10T07:07:53.999Z,228
2017-02-10T07:08:34.393Z,236
2017-02-10T07:09:14.912Z,240
2017-02-10T07:09:55.353Z,256
2017-02-10T07:10:35.837Z,268
2017-02-10T07:11:16.438Z,288
2017-02-10T07:11:56.904Z,312
2017-02-10T07:12:37.362Z,324
2017-02-10T07:13:17.849Z,340
2017-02-10T07:13:58.298Z,364
2017-02-10T07:14:38.810Z,372
2017-02-10T07:15:19.349Z,392
2017-02-10T07:15:59.770Z,396
2017-02-10T07:16:41.178Z,408
2017-02-10T07:17:21.752Z,432
2017-02-10T07:18:02.189Z,448
2017-02-10T07:18:42.678Z,456
2017-02-10T07:19:23.197Z,480
2017-02-10T07:20:03.799Z,500
2017-02-10T07:20:44.264Z,516
2017-02-10T07:21:27.631Z,528
2017-02-10T07:22:09.062Z,528
2017-02-10T07:22:49.519Z,544
2017-02-10T07:23:30.781Z,560
2017-02-10T07:24:12.994Z,556
2017-02-10T07:24:53.430Z,556
2017-02-10T07:25:33.938Z,572
2017-02-10T07:26:16.184Z,584
2017-02-10T07:26:58.454Z,600
2017-02-10T07:27:41.480Z,628
2017-02-10T07:28:22.657Z,644
2017-02-10T07:29:03.162Z,628
2017-02-10T07:29:43.729Z,624
2017-02-10T07:30:25.162Z,616
2017-02-10T07:31:05.653Z,648
2017-02-10T07:31:46.164Z,684
2017-02-10T07:32:27.459Z,704
2017-02-10T07:33:08.548Z,708
2017-02-10T07:33:49.123Z,712
2017-02-10T07:34:30.371Z,712
2017-02-10T07:35:11.596Z,712
2017-02-10T07:35:52.103Z,720
2017-02-10T07:36:32.548Z,752
2017-02-10T07:37:13.648Z,756
2017-02-10T07:37:54.191Z,740
2017-02-10T07:38:34.678Z,732
2017-02-10T07:39:15.188Z,728
2017-02-10T07:39:55.675Z,736
2017-02-10T07:40:36.198Z,784
2017-02-10T07:41:16.695Z,804
2017-02-10T07:41:57.278Z,792
2017-02-10T07:42:37.751Z,772
2017-02-10T07:43:18.235Z,792
2017-02-10T07:43:58.724Z,808
2017-02-10T07:44:39.241Z,828
2017-02-10T07:45:20.610Z,844
2017-02-10T07:46:01.022Z,856
2017-02-10T07:46:41.464Z,888
2017-02-10T07:47:33.023Z,952
2017-02-10T07:48:13.282Z,960
2017-02-10T07:48:53.896Z,968
2017-02-10T07:49:37.880Z,976
2017-02-10T07:50:20.291Z,972
2017-02-10T07:51:00.765Z,984
2017-02-10T07:51:41.202Z,1000
2017-02-10T07:52:21.664Z,1016
2017-02-10T07:53:04.915Z,1020
2017-02-10T07:53:45.384Z,1036
2017-02-10T07:54:25.814Z,1032
2017-02-10T07:55:06.271Z,1012
2017-02-10T07:55:48.351Z,1048
2017-02-10T07:56:30.843Z,1036
2017-02-10T07:57:16.781Z,1040
2017-02-10T07:58:01.600Z,1080
2017-02-10T07:58:42.382Z,1080
2017-02-10T07:59:22.735Z,1076
2017-02-10T08:00:04.301Z,1092
2017-02-10T08:00:44.734Z,1100
2017-02-10T08:01:25.212Z,1128
2017-02-10T08:02:05.761Z,1116
2017-02-10T08:02:46.516Z,1108
2017-02-10T08:03:28.675Z,1128
2017-02-10T08:04:09.145Z,1108
2017-02-10T08:04:50.488Z,1088
2017-02-10T08:05:30.972Z,1100
2017-02-10T08:06:13.272Z,1124
2017-02-10T08:06:55.555Z,1144
2017-02-10T08:07:36.087Z,1104
2017-02-10T08:08:16.751Z,1108
2017-02-10T08:08:57.243Z,1092
2017-02-10T08:09:37.765Z,1160
2017-02-10T08:10:18.243Z,1208
2017-02-10T08:10:59.953Z,1220
2017-02-10T08:11:41.117Z,1196
2017-02-10T08:12:21.631Z,1196
2017-02-10T08:13:06.688Z,1132
2017-02-10T08:13:46.923Z,1144
2017-02-10T08:14:27.401Z,1148
2017-02-10T08:15:07.839Z,1144
2017-02-10T08:15:48.391Z,1124
2017-02-10T08:16:28.825Z,1168
2017-02-10T08:17:11.888Z,1216
2017-02-10T08:17:52.306Z,1296
2017-02-10T08:18:32.814Z,1364
2017-02-10T08:19:13.294Z,1376
2017-02-10T08:19:53.936Z,1412
2017-02-10T08:20:35.742Z,1488
2017-02-10T08:21:16.877Z,1532
2017-02-10T08:21:57.960Z,1572
2017-02-10T08:22:38.413Z,1580
2017-02-10T08:23:19.006Z,1684
2017-02-10T08:23:59.512Z,1624
2017-02-10T08:24:39.987Z,1712
2017-02-10T08:25:20.542Z,1740
2017-02-10T08:26:01.023Z,1816
2017-02-10T08:26:41.529Z,1952
2017-02-10T08:27:22.021Z,2012
2017-02-10T08:28:02.539Z,2032
2017-02-10T08:28:43.003Z,2108
2017-02-10T08:29:24.608Z,2156
2017-02-10T08:30:07.700Z,2244
2017-02-10T08:30:52.089Z,2288
2017-02-10T08:31:37.540Z,2268
2017-02-10T08:32:18.347Z,2252
2017-02-10T08:32:59.941Z,2244
2017-02-10T08:33:42.617Z,2256
2017-02-10T08:34:31.596Z,2268
2017-02-10T08:35:13.938Z,2260
2017-02-10T08:35:56.063Z,2232
2017-02-10T08:36:36.549Z,2228
2017-02-10T08:37:17.067Z,2256
2017-02-10T08:37:57.582Z,2280
2017-02-10T08:38:38.110Z,2304
2017-02-10T08:39:18.629Z,2304
2017-02-10T08:39:59.054Z,2292
2017-02-10T08:40:39.538Z,2304
2017-02-10T08:41:20.989Z,2344
2017-02-10T08:42:01.600Z,2364
2017-02-10T08:42:42.098Z,2388
2017-02-10T08:43:22.596Z,2400
2017-02-10T08:44:03.067Z,2424
2017-02-10T08:44:43.902Z,2428
2017-02-10T08:45:24.585Z,2428
2017-02-10T08:46:08.648Z,2432
2017-02-10T08:46:51.897Z,2448
2017-02-10T08:47:37.161Z,2460
2017-02-10T08:48:24.631Z,2468
2017-02-10T08:49:06.108Z,2468
2017-02-10T08:49:46.809Z,2472
2017-02-10T08:50:30.304Z,2484
2017-02-10T08:51:12.585Z,2504
2017-02-10T08:51:53.076Z,2512
2017-02-10T08:52:33.531Z,2528
2017-02-10T08:53:14.057Z,2528
2017-02-10T08:53:54.546Z,2564
2017-02-10T08:54:35.007Z,2616
2017-02-10T08:55:15.515Z,2648
2017-02-10T08:55:55.963Z,2660
2017-02-10T08:56:36.635Z,2664
2017-02-10T08:57:17.156Z,2672
2017-02-10T08:57:57.663Z,2680
2017-02-10T08:58:39.941Z,2688
2017-02-10T08:59:20.439Z,2680
2017-02-10T09:00:02.907Z,2660
2017-02-10T09:00:43.889Z,2640
2017-02-10T09:01:24.422Z,2632
2017-02-10T09:02:07.795Z,2648
2017-02-10T09:02:48.465Z,2672
2017-02-10T09:03:30.861Z,2688
2017-02-10T09:04:12.160Z,2700
2017-02-10T09:04:54.416Z,2720
2017-02-10T09:05:36.172Z,2740
2017-02-10T09:06:22.855Z,2768
2017-02-10T09:07:06.888Z,2796
2017-02-10T09:07:49.187Z,2844
2017-02-10T09:08:39.226Z,2896
2017-02-10T09:09:20.809Z,2944
2017-02-10T09:10:02.009Z,2968
2017-02-10T09:10:48.083Z,2996
2017-02-10T09:11:35.103Z,3044
2017-02-10T09:12:18.043Z,3092
2017-02-10T09:13:04.629Z,3128
2017-02-10T09:13:48.679Z,3164
2017-02-10T09:14:31.082Z,3180
2017-02-10T09:15:15.398Z,3208
2017-02-10T09:15:57.562Z,3244
2017-02-10T09:16:42.545Z,3240
2017-02-10T09:17:25.631Z,3272
2017-02-10T09:18:06.224Z,3284
2017-02-10T09:18:46.769Z,3300
2017-02-10T09:19:29.821Z,3344
2017-02-10T09:20:12.937Z,3384
2017-02-10T09:20:53.428Z,3432
2017-02-10T09:21:34.299Z,3456
2017-02-10T09:22:14.778Z,3464
2017-02-10T09:22:55.303Z,3516
2017-02-10T09:23:35.826Z,3588
2017-02-10T09:24:18.947Z,3604
2017-02-10T09:25:00.341Z,3644
2017-02-10T09:25:43.835Z,3676
2017-02-10T09:26:24.335Z,3680
2017-02-10T09:27:07.758Z,3676
2017-02-10T09:27:54.189Z,3652
2017-02-10T09:28:38.586Z,3636
2017-02-10T09:29:25.817Z,3672
2017-02-10T09:30:10.596Z,3692
2017-02-10T09:30:54.641Z,3672
2017-02-10T09:31:37.798Z,3648
2017-02-10T09:32:21.227Z,3652
2017-02-10T09:33:05.643Z,3664
2017-02-10T09:33:55.044Z,3616
2017-02-10T09:34:39.422Z,3576
2017-02-10T09:35:24.981Z,3588
2017-02-10T09:36:09.466Z,3580
2017-02-10T09:36:54.070Z,3596
2017-02-10T09:37:39.121Z,3616
2017-02-10T09:38:19.596Z,3600
2017-02-10T09:39:05.583Z,3608
2017-02-10T09:39:47.956Z,3648
2017-02-10T09:40:30.737Z,3676
2017-02-10T09:41:14.047Z,3684
2017-02-10T09:41:54.393Z,3704
2017-02-10T09:42:37.604Z,3684
2017-02-10T09:44:45.939Z,3676
2017-02-10T09:45:38.857Z,3680
2017-02-10T09:46:28.366Z,3708
2017-02-10T09:47:19.970Z,3708
2017-02-10T10:32:58.376Z,5596
2017-02-10T10:34:09.333Z,5660
2017-02-10T10:35:04.150Z,5660
2017-02-10T10:46:45.360Z,5696
2017-02-10T10:47:34.305Z,5748
2017-02-10T11:01:19.062Z,5124
2017-02-10T11:04:05.201Z,5224
2017-02-10T11:04:50.413Z,5172
2017-02-10T11:05:33.416Z,5152
2017-02-10T11:06:13.901Z,5164
2017-02-10T11:06:55.034Z,5200
2017-02-10T11:07:35.597Z,5272
2017-02-10T11:08:16.910Z,5340
2017-02-10T11:08:57.380Z,5388
2017-02-10T11:09:38.010Z,5428
2017-02-10T11:10:19.040Z,5468
2017-02-10T11:10:59.530Z,5464
2017-02-10T11:11:40.170Z,5512
2017-02-10T11:12:20.796Z,5596
2017-02-10T11:13:02.045Z,5712
2017-02-10T11:13:42.633Z,5816
2017-02-10T11:14:23.363Z,5904
2017-02-10T11:15:03.846Z,6008
2017-02-10T11:15:44.879Z,6052
2017-02-10T11:16:25.339Z,5956
2017-02-10T11:17:16.354Z,5856
2017-02-10T11:18:04.061Z,5812
2017-02-10T11:18:47.425Z,5800
2017-02-10T11:21:16.426Z,5704
2017-02-10T11:22:04.768Z,5648
2017-02-10T11:22:53.611Z,5624
2017-02-10T11:26:50.330Z,6108
2017-02-10T11:27:42.814Z,5920
2017-02-10T11:28:31.942Z,5768
2017-02-10T11:29:20.576Z,5660
2017-02-10T11:30:10.209Z,5584
2017-02-10T11:30:59.969Z,5544
2017-02-10T11:31:50.967Z,5532
2017-02-10T11:32:40.036Z,5564
2017-02-10T11:33:30.854Z,5532
2017-02-10T11:34:19.794Z,5552
2017-02-10T11:35:10.809Z,5600
2017-02-10T11:36:06.496Z,5596
2017-02-10T11:37:03.863Z,5724
2017-02-10T11:40:06.624Z,6164
2017-02-10T11:40:57.746Z,6176
2017-02-10T11:41:48.655Z,6100
2017-02-10T11:42:39.340Z,6196
2017-02-10T11:43:41.632Z,6340
2017-02-10T11:45:42.235Z,6620
2017-02-10T11:46:31.181Z,6644
2017-02-10T11:47:20.113Z,6684
2017-02-10T11:49:43.211Z,6612
2017-02-10T11:50:31.266Z,6636
2017-02-10T11:51:21.491Z,6664
2017-02-10T11:52:14.451Z,6660
2017-02-10T11:53:07.162Z,6636
2017-02-10T11:54:03.752Z,6616
2017-02-10T11:58:20.165Z,6840
2017-02-10T12:01:11.589Z,6952
2017-02-10T12:02:00.966Z,6972
2017-02-10T12:02:49.243Z,6936